sensor_id;sensor_type;location;lat;lon;timestamp;temperature;humidity
67817;DHT22;54614;47.576;7.524;2022-07-30T00:01:33;24.80;63.30
67817;DHT22;54614;47.576;7.524;2022-07-30T00:03:59;24.80;63.40
67817;DHT22;54614;47.576;7.524;2022-07-30T00:06:25;24.80;63.20
67817;DHT22;54614;47.576;7.524;2022-07-30T00:08:50;24.80;63.60
67817;DHT22;54614;47.576;7.524;2022-07-30T00:11:16;24.80;64.00
67817;DHT22;54614;47.576;7.524;2022-07-30T00:13:42;24.90;63.90
67817;DHT22;54614;47.576;7.524;2022-07-30T00:16:08;24.90;63.70
67817;DHT22;54614;47.576;7.524;2022-07-30T00:18:34;24.90;63.70
67817;DHT22;54614;47.576;7.524;2022-07-30T00:21:00;24.90;63.50
67817;DHT22;54614;47.576;7.524;2022-07-30T00:23:26;24.80;64.00
67817;DHT22;54614;47.576;7.524;2022-07-30T00:25:51;24.80;63.40
67817;DHT22;54614;47.576;7.524;2022-07-30T00:28:17;24.80;63.40
67817;DHT22;54614;47.576;7.524;2022-07-30T00:30:43;24.90;63.30
67817;DHT22;54614;47.576;7.524;2022-07-30T00:33:09;24.80;63.20
67817;DHT22;54614;47.576;7.524;2022-07-30T00:35:35;24.80;63.20
67817;DHT22;54614;47.576;7.524;2022-07-30T00:38:01;24.80;63.20
67817;DHT22;54614;47.576;7.524;2022-07-30T00:40:27;24.80;63.20
67817;DHT22;54614;47.576;7.524;2022-07-30T00:42:53;24.80;63.20
67817;DHT22;54614;47.576;7.524;2022-07-30T00:45:19;24.80;63.00
67817;DHT22;54614;47.576;7.524;2022-07-30T00:47:46;24.80;63.00
67817;DHT22;54614;47.576;7.524;2022-07-30T00:50:13;24.80;63.00
67817;DHT22;54614;47.576;7.524;2022-07-30T00:52:40;24.80;63.00
67817;DHT22;54614;47.576;7.524;2022-07-30T00:55:09;24.80;62.80
67817;DHT22;54614;47.576;7.524;2022-07-30T00:57:37;24.80;63.10
67817;DHT22;54614;47.576;7.524;2022-07-30T01:00:06;24.80;62.90
67817;DHT22;54614;47.576;7.524;2022-07-30T01:02:34;24.80;62.70
67817;DHT22;54614;47.576;7.524;2022-07-30T01:05:00;24.80;62.80
67817;DHT22;54614;47.576;7.524;2022-07-30T01:07:26;24.80;62.80
67817;DHT22;54614;47.576;7.524;2022-07-30T01:09:52;24.80;62.80
67817;DHT22;54614;47.576;7.524;2022-07-30T01:12:19;24.80;62.60
67817;DHT22;54614;47.576;7.524;2022-07-30T01:14:49;24.80;62.80
67817;DHT22;54614;47.576;7.524;2022-07-30T01:17:15;24.80;62.80
67817;DHT22;54614;47.576;7.524;2022-07-30T01:19:42;24.80;62.70
67817;DHT22;54614;47.576;7.524;2022-07-30T01:25:00;24.80;62.60
67817;DHT22;54614;47.576;7.524;2022-07-30T01:27:47;24.80;62.70
67817;DHT22;54614;47.576;7.524;2022-07-30T01:30:24;24.80;62.60
67817;DHT22;54614;47.576;7.524;2022-07-30T01:32:55;24.80;62.70
67817;DHT22;54614;47.576;7.524;2022-07-30T01:35:24;24.80;62.70
67817;DHT22;54614;47.576;7.524;2022-07-30T01:37:54;24.80;62.60
67817;DHT22;54614;47.576;7.524;2022-07-30T01:40:22;24.80;62.70
67817;DHT22;54614;47.576;7.524;2022-07-30T01:42:52;24.80;62.60
67817;DHT22;54614;47.576;7.524;2022-07-30T01:45:23;24.80;62.50
67817;DHT22;54614;47.576;7.524;2022-07-30T01:47:54;24.80;62.40
67817;DHT22;54614;47.576;7.524;2022-07-30T01:50:23;24.80;62.50
67817;DHT22;54614;47.576;7.524;2022-07-30T01:52:52;24.80;62.50
67817;DHT22;54614;47.576;7.524;2022-07-30T01:55:33;24.80;62.30
67817;DHT22;54614;47.576;7.524;2022-07-30T01:58:02;24.80;62.40
67817;DHT22;54614;47.576;7.524;2022-07-30T02:00:33;24.80;62.50
67817;DHT22;54614;47.576;7.524;2022-07-30T02:03:04;24.80;62.40
67817;DHT22;54614;47.576;7.524;2022-07-30T02:05:34;24.80;62.40
67817;DHT22;54614;47.576;7.524;2022-07-30T02:11:14;24.70;62.20
67817;DHT22;54614;47.576;7.524;2022-07-30T02:14:01;24.70;62.00
67817;DHT22;54614;47.576;7.524;2022-07-30T02:16:52;24.80;62.20
67817;DHT22;54614;47.576;7.524;2022-07-30T02:19:26;24.80;62.40
67817;DHT22;54614;47.576;7.524;2022-07-30T02:22:07;24.80;62.20
67817;DHT22;54614;47.576;7.524;2022-07-30T02:24:36;24.70;62.20
67817;DHT22;54614;47.576;7.524;2022-07-30T02:27:09;24.70;62.00
67817;DHT22;54614;47.576;7.524;2022-07-30T02:29:40;24.70;62.30
67817;DHT22;54614;47.576;7.524;2022-07-30T02:32:11;24.70;62.00
67817;DHT22;54614;47.576;7.524;2022-07-30T02:34:40;24.70;62.10
67817;DHT22;54614;47.576;7.524;2022-07-30T02:37:10;24.70;62.00
67817;DHT22;54614;47.576;7.524;2022-07-30T02:39:39;24.70;62.00
67817;DHT22;54614;47.576;7.524;2022-07-30T02:42:08;24.70;62.00
67817;DHT22;54614;47.576;7.524;2022-07-30T02:44:38;24.70;62.00
67817;DHT22;54614;47.576;7.524;2022-07-30T02:47:08;24.70;62.00
67817;DHT22;54614;47.576;7.524;2022-07-30T02:49:38;24.70;62.00
67817;DHT22;54614;47.576;7.524;2022-07-30T02:52:07;24.70;62.10
67817;DHT22;54614;47.576;7.524;2022-07-30T02:54:41;24.70;62.00
67817;DHT22;54614;47.576;7.524;2022-07-30T02:57:08;24.70;62.00
67817;DHT22;54614;47.576;7.524;2022-07-30T02:59:39;24.70;62.00
67817;DHT22;54614;47.576;7.524;2022-07-30T03:02:07;24.70;62.00
67817;DHT22;54614;47.576;7.524;2022-07-30T03:04:35;24.70;62.00
67817;DHT22;54614;47.576;7.524;2022-07-30T03:07:05;24.70;62.00
67817;DHT22;54614;47.576;7.524;2022-07-30T03:09:31;24.70;62.00
67817;DHT22;54614;47.576;7.524;2022-07-30T03:11:58;24.70;62.00
67817;DHT22;54614;47.576;7.524;2022-07-30T03:14:27;24.70;62.00
67817;DHT22;54614;47.576;7.524;2022-07-30T03:16:57;24.70;62.00
67817;DHT22;54614;47.576;7.524;2022-07-30T03:19:28;24.70;62.00
67817;DHT22;54614;47.576;7.524;2022-07-30T03:21:59;24.70;62.00
67817;DHT22;54614;47.576;7.524;2022-07-30T03:24:28;24.70;62.00
67817;DHT22;54614;47.576;7.524;2022-07-30T03:26:56;24.70;62.00
67817;DHT22;54614;47.576;7.524;2022-07-30T03:29:25;24.70;62.30
67817;DHT22;54614;47.576;7.524;2022-07-30T03:31:53;24.70;62.10
67817;DHT22;54614;47.576;7.524;2022-07-30T03:34:20;24.70;62.00
67817;DHT22;54614;47.576;7.524;2022-07-30T03:36:47;24.70;62.60
67817;DHT22;54614;47.576;7.524;2022-07-30T03:39:14;24.70;62.00
67817;DHT22;54614;47.576;7.524;2022-07-30T03:41:43;24.70;62.00
67817;DHT22;54614;47.576;7.524;2022-07-30T03:44:11;24.70;62.00
67817;DHT22;54614;47.576;7.524;2022-07-30T03:46:38;24.70;62.00
67817;DHT22;54614;47.576;7.524;2022-07-30T03:49:05;24.70;61.90
67817;DHT22;54614;47.576;7.524;2022-07-30T03:51:36;24.70;62.00
67817;DHT22;54614;47.576;7.524;2022-07-30T03:54:03;24.70;62.10
67817;DHT22;54614;47.576;7.524;2022-07-30T03:56:34;24.70;62.00
67817;DHT22;54614;47.576;7.524;2022-07-30T03:59:01;24.70;62.00
67817;DHT22;54614;47.576;7.524;2022-07-30T04:01:27;24.70;62.00
67817;DHT22;54614;47.576;7.524;2022-07-30T04:03:53;24.70;62.00
67817;DHT22;54614;47.576;7.524;2022-07-30T04:06:19;24.70;62.00
67817;DHT22;54614;47.576;7.524;2022-07-30T04:08:45;24.70;62.00
67817;DHT22;54614;47.576;7.524;2022-07-30T04:11:11;24.70;61.80
67817;DHT22;54614;47.576;7.524;2022-07-30T04:13:37;24.70;61.90
67817;DHT22;54614;47.576;7.524;2022-07-30T04:18:44;24.70;61.90
67817;DHT22;54614;47.576;7.524;2022-07-30T04:21:17;24.70;62.00
67817;DHT22;54614;47.576;7.524;2022-07-30T04:23:47;24.70;61.90
67817;DHT22;54614;47.576;7.524;2022-07-30T04:26:16;24.70;61.90
67817;DHT22;54614;47.576;7.524;2022-07-30T04:28:43;24.70;61.90
67817;DHT22;54614;47.576;7.524;2022-07-30T04:31:10;24.70;62.00
67817;DHT22;54614;47.576;7.524;2022-07-30T04:33:36;24.70;62.00
67817;DHT22;54614;47.576;7.524;2022-07-30T04:36:07;24.70;61.90
67817;DHT22;54614;47.576;7.524;2022-07-30T04:38:33;24.70;61.90
67817;DHT22;54614;47.576;7.524;2022-07-30T04:40:59;24.70;62.00
67817;DHT22;54614;47.576;7.524;2022-07-30T04:43:25;24.70;62.00
67817;DHT22;54614;47.576;7.524;2022-07-30T04:45:51;24.70;61.90
67817;DHT22;54614;47.576;7.524;2022-07-30T04:48:17;24.70;61.80
67817;DHT22;54614;47.576;7.524;2022-07-30T04:50:47;24.60;61.80
67817;DHT22;54614;47.576;7.524;2022-07-30T04:53:16;24.70;61.90
67817;DHT22;54614;47.576;7.524;2022-07-30T04:55:45;24.70;61.90
67817;DHT22;54614;47.576;7.524;2022-07-30T04:58:15;24.70;62.00
67817;DHT22;54614;47.576;7.524;2022-07-30T05:00:44;24.70;61.80
67817;DHT22;54614;47.576;7.524;2022-07-30T05:03:12;24.70;61.90
67817;DHT22;54614;47.576;7.524;2022-07-30T05:05:41;24.70;61.80
67817;DHT22;54614;47.576;7.524;2022-07-30T05:08:07;24.70;61.90
67817;DHT22;54614;47.576;7.524;2022-07-30T05:10:33;24.70;61.90
67817;DHT22;54614;47.576;7.524;2022-07-30T05:13:00;24.70;61.90
67817;DHT22;54614;47.576;7.524;2022-07-30T05:15:26;24.70;62.00
67817;DHT22;54614;47.576;7.524;2022-07-30T05:17:52;24.70;62.00
67817;DHT22;54614;47.576;7.524;2022-07-30T05:20:17;24.70;62.00
67817;DHT22;54614;47.576;7.524;2022-07-30T05:22:43;24.70;62.00
67817;DHT22;54614;47.576;7.524;2022-07-30T05:25:09;24.70;62.00
67817;DHT22;54614;47.576;7.524;2022-07-30T05:27:35;24.70;62.00
67817;DHT22;54614;47.576;7.524;2022-07-30T05:30:01;24.70;62.00
67817;DHT22;54614;47.576;7.524;2022-07-30T05:32:27;24.70;62.00
67817;DHT22;54614;47.576;7.524;2022-07-30T05:34:52;24.70;62.10
67817;DHT22;54614;47.576;7.524;2022-07-30T05:37:19;24.70;62.20
67817;DHT22;54614;47.576;7.524;2022-07-30T05:39:45;24.70;62.20
67817;DHT22;54614;47.576;7.524;2022-07-30T05:42:11;24.70;62.20
67817;DHT22;54614;47.576;7.524;2022-07-30T05:44:36;24.70;62.30
67817;DHT22;54614;47.576;7.524;2022-07-30T05:47:02;24.70;63.00
67817;DHT22;54614;47.576;7.524;2022-07-30T05:49:28;24.70;62.30
67817;DHT22;54614;47.576;7.524;2022-07-30T05:51:54;24.70;62.30
67817;DHT22;54614;47.576;7.524;2022-07-30T05:54:20;24.70;62.30
67817;DHT22;54614;47.576;7.524;2022-07-30T05:56:45;24.70;62.30
67817;DHT22;54614;47.576;7.524;2022-07-30T05:59:11;24.70;62.30
67817;DHT22;54614;47.576;7.524;2022-07-30T06:01:37;24.70;62.30
67817;DHT22;54614;47.576;7.524;2022-07-30T06:04:03;24.70;62.40
67817;DHT22;54614;47.576;7.524;2022-07-30T06:06:29;24.70;62.40
67817;DHT22;54614;47.576;7.524;2022-07-30T06:08:55;24.70;62.50
67817;DHT22;54614;47.576;7.524;2022-07-30T06:11:21;24.70;62.60
67817;DHT22;54614;47.576;7.524;2022-07-30T06:13:47;24.70;62.50
67817;DHT22;54614;47.576;7.524;2022-07-30T06:16:13;24.70;62.60
67817;DHT22;54614;47.576;7.524;2022-07-30T06:18:39;24.70;62.60
67817;DHT22;54614;47.576;7.524;2022-07-30T06:21:05;24.70;62.60
67817;DHT22;54614;47.576;7.524;2022-07-30T06:23:31;24.70;62.60
67817;DHT22;54614;47.576;7.524;2022-07-30T06:25:57;24.70;62.60
67817;DHT22;54614;47.576;7.524;2022-07-30T06:28:23;24.70;62.60
67817;DHT22;54614;47.576;7.524;2022-07-30T06:30:49;24.70;62.70
67817;DHT22;54614;47.576;7.524;2022-07-30T06:33:15;24.70;62.70
67817;DHT22;54614;47.576;7.524;2022-07-30T06:35:41;24.80;62.80
67817;DHT22;54614;47.576;7.524;2022-07-30T06:38:07;24.40;59.60
67817;DHT22;54614;47.576;7.524;2022-07-30T06:40:33;24.00;61.00
67817;DHT22;54614;47.576;7.524;2022-07-30T06:42:59;23.90;61.50
67817;DHT22;54614;47.576;7.524;2022-07-30T06:45:25;23.40;60.80
67817;DHT22;54614;47.576;7.524;2022-07-30T06:47:51;23.10;62.10
67817;DHT22;54614;47.576;7.524;2022-07-30T06:50:16;22.80;62.80
67817;DHT22;54614;47.576;7.524;2022-07-30T06:52:44;22.90;63.50
67817;DHT22;54614;47.576;7.524;2022-07-30T06:55:10;23.10;63.00
67817;DHT22;54614;47.576;7.524;2022-07-30T06:57:36;23.30;62.60
67817;DHT22;54614;47.576;7.524;2022-07-30T07:00:03;23.20;62.20
67817;DHT22;54614;47.576;7.524;2022-07-30T07:02:30;23.30;62.60
67817;DHT22;54614;47.576;7.524;2022-07-30T07:04:56;23.50;62.40
67817;DHT22;54614;47.576;7.524;2022-07-30T07:07:22;23.70;62.40
67817;DHT22;54614;47.576;7.524;2022-07-30T07:09:47;23.70;62.20
67817;DHT22;54614;47.576;7.524;2022-07-30T07:12:13;23.90;62.10
67817;DHT22;54614;47.576;7.524;2022-07-30T07:14:39;23.90;62.00
67817;DHT22;54614;47.576;7.524;2022-07-30T07:17:05;23.90;61.90
67817;DHT22;54614;47.576;7.524;2022-07-30T07:19:31;24.00;61.60
67817;DHT22;54614;47.576;7.524;2022-07-30T07:21:57;24.00;61.70
67817;DHT22;54614;47.576;7.524;2022-07-30T07:24:23;24.10;61.80
67817;DHT22;54614;47.576;7.524;2022-07-30T07:26:48;24.10;61.50
67817;DHT22;54614;47.576;7.524;2022-07-30T07:29:14;24.00;61.40
67817;DHT22;54614;47.576;7.524;2022-07-30T07:31:41;24.00;61.50
67817;DHT22;54614;47.576;7.524;2022-07-30T07:34:07;24.10;61.30
67817;DHT22;54614;47.576;7.524;2022-07-30T07:36:32;24.10;60.60
67817;DHT22;54614;47.576;7.524;2022-07-30T07:38:59;24.10;60.70
67817;DHT22;54614;47.576;7.524;2022-07-30T07:41:25;24.10;61.10
67817;DHT22;54614;47.576;7.524;2022-07-30T07:43:51;24.10;60.00
67817;DHT22;54614;47.576;7.524;2022-07-30T07:46:17;24.00;59.80
67817;DHT22;54614;47.576;7.524;2022-07-30T07:48:43;24.10;60.50
67817;DHT22;54614;47.576;7.524;2022-07-30T07:51:09;24.30;60.40
67817;DHT22;54614;47.576;7.524;2022-07-30T07:53:35;24.30;60.70
67817;DHT22;54614;47.576;7.524;2022-07-30T07:56:01;24.30;60.80
67817;DHT22;54614;47.576;7.524;2022-07-30T07:58:27;24.30;61.10
67817;DHT22;54614;47.576;7.524;2022-07-30T08:00:53;24.30;61.50
67817;DHT22;54614;47.576;7.524;2022-07-30T08:03:19;24.40;62.50
67817;DHT22;54614;47.576;7.524;2022-07-30T08:05:45;24.40;65.50
67817;DHT22;54614;47.576;7.524;2022-07-30T08:08:11;24.50;68.40
67817;DHT22;54614;47.576;7.524;2022-07-30T08:10:37;24.50;67.80
67817;DHT22;54614;47.576;7.524;2022-07-30T08:13:03;24.50;67.30
67817;DHT22;54614;47.576;7.524;2022-07-30T08:15:29;24.50;66.80
67817;DHT22;54614;47.576;7.524;2022-07-30T08:17:56;24.50;65.70
67817;DHT22;54614;47.576;7.524;2022-07-30T08:20:22;24.50;65.60
67817;DHT22;54614;47.576;7.524;2022-07-30T08:22:49;24.50;65.50
67817;DHT22;54614;47.576;7.524;2022-07-30T08:25:15;24.50;65.40
67817;DHT22;54614;47.576;7.524;2022-07-30T08:27:43;24.50;65.10
67817;DHT22;54614;47.576;7.524;2022-07-30T08:30:10;24.50;65.10
67817;DHT22;54614;47.576;7.524;2022-07-30T08:32:36;24.50;64.90
67817;DHT22;54614;47.576;7.524;2022-07-30T08:35:04;24.50;64.80
67817;DHT22;54614;47.576;7.524;2022-07-30T08:37:31;24.50;64.50
67817;DHT22;54614;47.576;7.524;2022-07-30T08:39:58;24.50;64.30
67817;DHT22;54614;47.576;7.524;2022-07-30T08:42:25;24.50;63.80
67817;DHT22;54614;47.576;7.524;2022-07-30T08:44:52;24.60;63.70
67817;DHT22;54614;47.576;7.524;2022-07-30T08:47:25;24.60;63.60
67817;DHT22;54614;47.576;7.524;2022-07-30T08:49:55;24.60;63.60
67817;DHT22;54614;47.576;7.524;2022-07-30T08:52:26;24.60;63.70
67817;DHT22;54614;47.576;7.524;2022-07-30T08:54:54;24.60;63.60
67817;DHT22;54614;47.576;7.524;2022-07-30T08:57:20;24.60;63.50
67817;DHT22;54614;47.576;7.524;2022-07-30T08:59:47;24.60;63.20
67817;DHT22;54614;47.576;7.524;2022-07-30T09:02:16;24.70;63.20
67817;DHT22;54614;47.576;7.524;2022-07-30T09:04:42;24.70;63.10
67817;DHT22;54614;47.576;7.524;2022-07-30T09:07:07;24.70;63.00
67817;DHT22;54614;47.576;7.524;2022-07-30T09:09:33;24.70;62.80
67817;DHT22;54614;47.576;7.524;2022-07-30T09:11:59;24.70;62.60
67817;DHT22;54614;47.576;7.524;2022-07-30T09:14:25;24.70;62.70
67817;DHT22;54614;47.576;7.524;2022-07-30T09:16:57;24.70;62.60
67817;DHT22;54614;47.576;7.524;2022-07-30T09:19:23;24.70;62.40
67817;DHT22;54614;47.576;7.524;2022-07-30T09:21:59;24.80;62.10
67817;DHT22;54614;47.576;7.524;2022-07-30T09:24:26;24.80;62.10
67817;DHT22;54614;47.576;7.524;2022-07-30T09:27:00;24.80;62.00
67817;DHT22;54614;47.576;7.524;2022-07-30T09:29:29;24.80;62.20
67817;DHT22;54614;47.576;7.524;2022-07-30T09:32:02;24.80;61.70
67817;DHT22;54614;47.576;7.524;2022-07-30T09:34:33;24.90;61.30
67817;DHT22;54614;47.576;7.524;2022-07-30T09:39:37;24.80;61.90
67817;DHT22;54614;47.576;7.524;2022-07-30T09:42:18;24.80;62.10
67817;DHT22;54614;47.576;7.524;2022-07-30T09:44:49;24.80;62.40
67817;DHT22;54614;47.576;7.524;2022-07-30T09:47:36;24.70;62.40
67817;DHT22;54614;47.576;7.524;2022-07-30T09:50:15;24.70;62.50
67817;DHT22;54614;47.576;7.524;2022-07-30T09:52:45;24.70;62.50
67817;DHT22;54614;47.576;7.524;2022-07-30T09:55:13;24.70;62.60
67817;DHT22;54614;47.576;7.524;2022-07-30T09:57:54;24.70;63.70
67817;DHT22;54614;47.576;7.524;2022-07-30T10:00:23;24.80;63.90
67817;DHT22;54614;47.576;7.524;2022-07-30T10:02:52;24.80;63.70
67817;DHT22;54614;47.576;7.524;2022-07-30T10:05:19;24.80;63.60
67817;DHT22;54614;47.576;7.524;2022-07-30T10:07:52;24.80;63.50
67817;DHT22;54614;47.576;7.524;2022-07-30T10:10:26;24.80;63.50
67817;DHT22;54614;47.576;7.524;2022-07-30T10:12:58;24.80;63.20
67817;DHT22;54614;47.576;7.524;2022-07-30T10:15:32;24.90;63.20
67817;DHT22;54614;47.576;7.524;2022-07-30T10:18:01;24.90;62.90
67817;DHT22;54614;47.576;7.524;2022-07-30T10:20:29;24.90;63.60
67817;DHT22;54614;47.576;7.524;2022-07-30T10:22:56;25.00;62.80
67817;DHT22;54614;47.576;7.524;2022-07-30T10:25:25;25.00;62.80
67817;DHT22;54614;47.576;7.524;2022-07-30T10:27:51;25.00;62.80
67817;DHT22;54614;47.576;7.524;2022-07-30T10:30:17;25.00;62.70
67817;DHT22;54614;47.576;7.524;2022-07-30T10:32:45;25.00;62.80
67817;DHT22;54614;47.576;7.524;2022-07-30T10:35:12;25.00;62.80
67817;DHT22;54614;47.576;7.524;2022-07-30T10:37:45;25.00;62.70
67817;DHT22;54614;47.576;7.524;2022-07-30T10:40:25;25.00;62.70
67817;DHT22;54614;47.576;7.524;2022-07-30T10:43:05;25.10;62.70
67817;DHT22;54614;47.576;7.524;2022-07-30T10:46:01;25.10;62.70
67817;DHT22;54614;47.576;7.524;2022-07-30T10:48:37;25.10;62.80
67817;DHT22;54614;47.576;7.524;2022-07-30T10:51:03;25.10;62.80
67817;DHT22;54614;47.576;7.524;2022-07-30T10:53:41;25.10;62.80
67817;DHT22;54614;47.576;7.524;2022-07-30T10:56:17;25.10;62.80
67817;DHT22;54614;47.576;7.524;2022-07-30T10:59:01;25.10;62.80
67817;DHT22;54614;47.576;7.524;2022-07-30T11:04:20;25.10;62.80
67817;DHT22;54614;47.576;7.524;2022-07-30T11:06:46;25.20;63.00
67817;DHT22;54614;47.576;7.524;2022-07-30T11:09:42;25.20;63.00
67817;DHT22;54614;47.576;7.524;2022-07-30T11:12:09;25.20;63.00
67817;DHT22;54614;47.576;7.524;2022-07-30T11:17:16;25.20;62.90
67817;DHT22;54614;47.576;7.524;2022-07-30T11:22:36;25.20;63.20
67817;DHT22;54614;47.576;7.524;2022-07-30T11:25:06;25.20;63.20
67817;DHT22;54614;47.576;7.524;2022-07-30T11:27:38;25.20;63.40
67817;DHT22;54614;47.576;7.524;2022-07-30T11:32:55;25.10;64.00
67817;DHT22;54614;47.576;7.524;2022-07-30T11:35:32;25.20;63.20
67817;DHT22;54614;47.576;7.524;2022-07-30T11:38:12;25.20;63.20
67817;DHT22;54614;47.576;7.524;2022-07-30T11:51:20;25.30;63.40
67817;DHT22;54614;47.576;7.524;2022-07-30T11:54:07;25.30;63.50
67817;DHT22;54614;47.576;7.524;2022-07-30T11:56:35;25.30;63.40
67817;DHT22;54614;47.576;7.524;2022-07-30T11:59:06;25.30;63.50
67817;DHT22;54614;47.576;7.524;2022-07-30T12:01:33;25.30;63.40
67817;DHT22;54614;47.576;7.524;2022-07-30T12:04:04;25.30;63.50
67817;DHT22;54614;47.576;7.524;2022-07-30T12:06:31;25.30;63.30
67817;DHT22;54614;47.576;7.524;2022-07-30T12:08:58;25.30;63.30
67817;DHT22;54614;47.576;7.524;2022-07-30T12:11:31;25.30;63.40
67817;DHT22;54614;47.576;7.524;2022-07-30T12:13:59;25.30;63.50
67817;DHT22;54614;47.576;7.524;2022-07-30T12:16:27;25.30;63.70
67817;DHT22;54614;47.576;7.524;2022-07-30T12:19:00;25.40;63.70
67817;DHT22;54614;47.576;7.524;2022-07-30T12:21:27;25.40;63.80
67817;DHT22;54614;47.576;7.524;2022-07-30T12:23:59;25.40;63.90
67817;DHT22;54614;47.576;7.524;2022-07-30T12:26:28;25.40;64.10
67817;DHT22;54614;47.576;7.524;2022-07-30T12:28:57;25.40;64.30
67817;DHT22;54614;47.576;7.524;2022-07-30T12:31:25;25.40;65.10
67817;DHT22;54614;47.576;7.524;2022-07-30T12:33:51;25.30;65.10
67817;DHT22;54614;47.576;7.524;2022-07-30T12:36:26;25.30;65.10
67817;DHT22;54614;47.576;7.524;2022-07-30T12:38:55;25.30;65.20
67817;DHT22;54614;47.576;7.524;2022-07-30T12:41:38;25.30;65.00
67817;DHT22;54614;47.576;7.524;2022-07-30T12:44:07;25.30;65.10
67817;DHT22;54614;47.576;7.524;2022-07-30T12:46:38;25.30;65.00
67817;DHT22;54614;47.576;7.524;2022-07-30T12:49:07;25.30;65.60
67817;DHT22;54614;47.576;7.524;2022-07-30T12:51:36;25.40;65.50
67817;DHT22;54614;47.576;7.524;2022-07-30T12:54:17;25.40;65.60
67817;DHT22;54614;47.576;7.524;2022-07-30T12:59:22;25.40;64.80
67817;DHT22;54614;47.576;7.524;2022-07-30T13:01:50;25.40;64.60
67817;DHT22;54614;47.576;7.524;2022-07-30T13:04:18;25.40;64.60
67817;DHT22;54614;47.576;7.524;2022-07-30T13:07:08;25.50;64.50
67817;DHT22;54614;47.576;7.524;2022-07-30T13:09:36;25.50;64.50
67817;DHT22;54614;47.576;7.524;2022-07-30T13:12:04;25.50;64.60
67817;DHT22;54614;47.576;7.524;2022-07-30T13:14:31;25.50;64.50
67817;DHT22;54614;47.576;7.524;2022-07-30T13:16:57;25.50;64.40
67817;DHT22;54614;47.576;7.524;2022-07-30T13:19:24;25.50;64.30
67817;DHT22;54614;47.576;7.524;2022-07-30T13:21:51;25.50;64.20
67817;DHT22;54614;47.576;7.524;2022-07-30T13:24:17;25.50;64.20
67817;DHT22;54614;47.576;7.524;2022-07-30T13:26:44;25.50;64.30
67817;DHT22;54614;47.576;7.524;2022-07-30T13:29:11;25.60;64.30
67817;DHT22;54614;47.576;7.524;2022-07-30T13:31:38;25.50;64.00
67817;DHT22;54614;47.576;7.524;2022-07-30T13:34:05;25.60;64.10
67817;DHT22;54614;47.576;7.524;2022-07-30T13:36:31;25.50;63.70
67817;DHT22;54614;47.576;7.524;2022-07-30T13:38:57;25.60;63.80
67817;DHT22;54614;47.576;7.524;2022-07-30T13:41:23;25.60;63.80
67817;DHT22;54614;47.576;7.524;2022-07-30T13:43:49;25.60;63.80
67817;DHT22;54614;47.576;7.524;2022-07-30T13:46:15;25.60;63.80
67817;DHT22;54614;47.576;7.524;2022-07-30T13:48:41;25.60;63.80
67817;DHT22;54614;47.576;7.524;2022-07-30T13:51:07;25.60;63.70
67817;DHT22;54614;47.576;7.524;2022-07-30T13:53:33;25.70;63.80
67817;DHT22;54614;47.576;7.524;2022-07-30T13:55:59;25.70;63.50
67817;DHT22;54614;47.576;7.524;2022-07-30T13:58:25;25.80;63.40
67817;DHT22;54614;47.576;7.524;2022-07-30T14:00:51;25.80;63.60
67817;DHT22;54614;47.576;7.524;2022-07-30T14:03:17;25.80;63.00
67817;DHT22;54614;47.576;7.524;2022-07-30T14:05:43;25.90;63.40
67817;DHT22;54614;47.576;7.524;2022-07-30T14:08:10;25.80;64.00
67817;DHT22;54614;47.576;7.524;2022-07-30T14:10:37;25.80;63.50
67817;DHT22;54614;47.576;7.524;2022-07-30T14:13:05;25.80;63.20
67817;DHT22;54614;47.576;7.524;2022-07-30T14:15:32;25.80;63.00
67817;DHT22;54614;47.576;7.524;2022-07-30T14:17:59;25.90;62.90
67817;DHT22;54614;47.576;7.524;2022-07-30T14:20:26;25.90;62.90
67817;DHT22;54614;47.576;7.524;2022-07-30T14:22:53;25.90;63.40
67817;DHT22;54614;47.576;7.524;2022-07-30T14:25:19;25.80;64.10
67817;DHT22;54614;47.576;7.524;2022-07-30T14:27:45;25.80;64.30
67817;DHT22;54614;47.576;7.524;2022-07-30T14:30:12;25.80;64.00
67817;DHT22;54614;47.576;7.524;2022-07-30T14:32:39;25.90;63.80
67817;DHT22;54614;47.576;7.524;2022-07-30T14:35:07;25.90;63.80
67817;DHT22;54614;47.576;7.524;2022-07-30T14:37:37;25.90;63.90
67817;DHT22;54614;47.576;7.524;2022-07-30T14:40:05;25.90;63.90
67817;DHT22;54614;47.576;7.524;2022-07-30T14:42:32;25.90;63.90
67817;DHT22;54614;47.576;7.524;2022-07-30T14:45:01;25.90;63.90
67817;DHT22;54614;47.576;7.524;2022-07-30T14:47:29;25.90;63.80
67817;DHT22;54614;47.576;7.524;2022-07-30T14:49:55;25.80;63.80
67817;DHT22;54614;47.576;7.524;2022-07-30T14:52:20;25.80;64.40
67817;DHT22;54614;47.576;7.524;2022-07-30T14:54:46;25.80;64.40
67817;DHT22;54614;47.576;7.524;2022-07-30T14:57:12;25.90;64.00
67817;DHT22;54614;47.576;7.524;2022-07-30T14:59:38;25.90;63.90
67817;DHT22;54614;47.576;7.524;2022-07-30T15:02:04;25.90;64.50
67817;DHT22;54614;47.576;7.524;2022-07-30T15:04:30;25.90;63.90
67817;DHT22;54614;47.576;7.524;2022-07-30T15:06:56;25.90;63.80
67817;DHT22;54614;47.576;7.524;2022-07-30T15:09:22;25.90;63.80
67817;DHT22;54614;47.576;7.524;2022-07-30T15:11:48;25.90;64.10
67817;DHT22;54614;47.576;7.524;2022-07-30T15:14:14;25.90;63.90
67817;DHT22;54614;47.576;7.524;2022-07-30T15:16:40;25.90;63.80
67817;DHT22;54614;47.576;7.524;2022-07-30T15:19:06;25.90;63.70
67817;DHT22;54614;47.576;7.524;2022-07-30T15:21:32;25.90;63.80
67817;DHT22;54614;47.576;7.524;2022-07-30T15:23:58;25.90;63.80
67817;DHT22;54614;47.576;7.524;2022-07-30T15:26:24;25.90;63.80
67817;DHT22;54614;47.576;7.524;2022-07-30T15:28:49;25.90;63.80
67817;DHT22;54614;47.576;7.524;2022-07-30T15:31:15;25.90;63.60
67817;DHT22;54614;47.576;7.524;2022-07-30T15:33:41;25.90;63.50
67817;DHT22;54614;47.576;7.524;2022-07-30T15:36:09;25.90;63.30
67817;DHT22;54614;47.576;7.524;2022-07-30T15:38:36;25.90;63.20
67817;DHT22;54614;47.576;7.524;2022-07-30T15:41:03;25.90;63.00
67817;DHT22;54614;47.576;7.524;2022-07-30T15:43:29;25.90;63.60
67817;DHT22;54614;47.576;7.524;2022-07-30T15:45:55;25.90;63.50
67817;DHT22;54614;47.576;7.524;2022-07-30T15:48:21;25.90;64.10
67817;DHT22;54614;47.576;7.524;2022-07-30T15:50:47;25.90;63.50
67817;DHT22;54614;47.576;7.524;2022-07-30T15:53:14;25.90;63.20
67817;DHT22;54614;47.576;7.524;2022-07-30T15:55:39;25.90;63.00
67817;DHT22;54614;47.576;7.524;2022-07-30T15:58:05;25.90;62.80
67817;DHT22;54614;47.576;7.524;2022-07-30T16:00:31;25.90;62.80
67817;DHT22;54614;47.576;7.524;2022-07-30T16:02:57;26.00;62.90
67817;DHT22;54614;47.576;7.524;2022-07-30T16:05:25;26.00;63.10
67817;DHT22;54614;47.576;7.524;2022-07-30T16:07:51;25.90;63.20
67817;DHT22;54614;47.576;7.524;2022-07-30T16:10:16;25.90;63.30
67817;DHT22;54614;47.576;7.524;2022-07-30T16:12:42;25.90;63.10